Time;durP1;ratioP1;P1;durP2;ratioP2;P2;SDS_P1;SDS_P2;PMS_P1;PMS_P2;Temp;Humidity;BMP_temperature;BMP_pressure;BME280_temperature;BME280_humidity;BME280_pressure;Samples;Min_cycle;Max_cycle;Signal;HPM_P1;HPM_P2
2023/08/11 00:00:56;;;;;;;12.40;1.10;;;;;;;;;;5086162;28;20441;-84
2023/08/11 00:03:22;;;;;;;13.00;1.40;;;;;;;;;;5092228;28;20498;-84
2023/08/11 00:05:49;;;;;;;12.20;1.07;;;;;;;;;;5089485;28;20799;-84
2023/08/11 00:08:16;;;;;;;12.10;1.27;;;;;;;;;;5087300;28;20464;-83
2023/08/11 00:10:42;;;;;;;12.80;1.47;;;;;;;;;;5088049;28;21167;-84
2023/08/11 00:13:12;;;;;;;12.60;1.30;;;;;;;;;;5085152;28;20926;-83
2023/08/11 00:15:39;;;;;;;12.57;1.20;;;;;;;;;;5080268;28;20909;-83
2023/08/11 00:18:09;;;;;;;13.20;2.40;;;;;;;;;;5089200;28;20435;-84
2023/08/11 00:20:36;;;;;;;12.60;1.13;;;;;;;;;;5087594;28;20433;-84
2023/08/11 00:23:03;;;;;;;13.00;1.63;;;;;;;;;;5088847;28;20817;-84
2023/08/11 00:25:30;;;;;;;12.70;1.60;;;;;;;;;;5086388;28;20463;-84
2023/08/11 00:27:57;;;;;;;13.40;1.57;;;;;;;;;;5087478;28;20509;-84
2023/08/11 00:30:25;;;;;;;13.00;1.30;;;;;;;;;;5081623;28;20535;-84
2023/08/11 00:32:52;;;;;;;13.10;1.50;;;;;;;;;;5086762;28;20461;-83
2023/08/11 00:35:21;;;;;;;12.20;1.20;;;;;;;;;;5086894;28;20458;-84
2023/08/11 00:37:48;;;;;;;13.50;1.30;;;;;;;;;;5085569;28;20517;-83
2023/08/11 00:40:15;;;;;;;12.63;1.20;;;;;;;;;;5084199;28;20424;-83
2023/08/11 00:42:41;;;;;;;;;;;;;;;;;;5083123;28;20297;-83
2023/08/11 00:45:09;;;;;;;12.70;1.30;;;;;;;;;;5089768;28;21140;-84
2023/08/11 00:47:39;;;;;;;12.33;1.20;;;;;;;;;;5090238;28;20491;-84
2023/08/11 00:50:06;;;;;;;12.13;1.10;;;;;;;;;;5084119;28;20434;-84
2023/08/11 00:52:33;;;;;;;;;;;;;;;;;;5073205;28;20331;-83
2023/08/11 00:55:03;;;;;;;12.63;1.57;;;;;;;;;;5084168;28;20239;-83
2023/08/11 00:57:30;;;;;;;12.17;1.07;;;;;;;;;;5072015;28;20433;-83
2023/08/11 00:59:56;;;;;;;14.90;1.10;;;;;;;;;;5085431;28;20489;-83
2023/08/11 01:02:23;;;;;;;12.23;1.10;;;;;;;;;;5086549;28;20468;-83
2023/08/11 01:04:50;;;;;;;12.33;1.20;;;;;;;;;;5066529;28;20552;-84
2023/08/11 01:07:20;;;;;;;12.57;1.27;;;;;;;;;;5087648;28;20464;-84
2023/08/11 01:09:54;;;;;;;12.20;1.13;;;;;;;;;;5089213;28;20428;-84
2023/08/11 01:12:21;;;;;;;;;;;;;;;;;;5088504;28;20878;-83
2023/08/11 01:14:47;;;;;;;;;;;;;;;;;;5081839;28;19974;-84
2023/08/11 01:17:14;;;;;;;;;;;;;;;;;;5066008;28;20368;-83
2023/08/11 01:19:42;;;;;;;12.27;1.20;;;;;;;;;;5082683;28;20187;-83
2023/08/11 01:22:11;;;;;;;14.00;1.70;;;;;;;;;;5081343;28;20426;-83
2023/08/11 01:24:40;;;;;;;13.70;1.38;;;;;;;;;;5081560;28;20414;-83
2023/08/11 01:27:07;;;;;;;13.80;1.20;;;;;;;;;;5081566;28;20458;-83
2023/08/11 01:29:34;;;;;;;13.00;1.00;;;;;;;;;;5081176;28;20760;-83
2023/08/11 01:32:02;;;;;;;14.50;1.30;;;;;;;;;;5080440;28;20449;-83
2023/08/11 01:34:29;;;;;;;13.20;1.13;;;;;;;;;;5086486;28;20880;-84
2023/08/11 01:37:07;;;;;;;13.30;1.30;;;;;;;;;;5082297;28;20760;-83
2023/08/11 01:39:35;;;;;;;13.40;1.20;;;;;;;;;;5071606;28;20440;-84
2023/08/11 01:42:03;;;;;;;14.20;1.50;;;;;;;;;;5085616;28;20425;-84
2023/08/11 01:44:30;;;;;;;13.40;1.10;;;;;;;;;;5082482;28;20748;-83
2023/08/11 01:46:57;;;;;;;13.20;1.15;;;;;;;;;;5084305;28;20902;-84
2023/08/11 01:49:25;;;;;;;13.43;1.30;;;;;;;;;;5082201;28;20493;-84
2023/08/11 01:51:51;;;;;;;13.07;1.27;;;;;;;;;;5084157;28;20500;-85
2023/08/11 01:54:19;;;;;;;13.20;1.20;;;;;;;;;;5090647;28;20406;-84
2023/08/11 01:56:46;;;;;;;13.30;1.27;;;;;;;;;;5064019;28;20415;-84
2023/08/11 01:59:15;;;;;;;13.23;1.20;;;;;;;;;;5069074;28;20426;-84
2023/08/11 02:01:42;;;;;;;13.80;1.38;;;;;;;;;;5082194;28;20403;-84
2023/08/11 02:04:08;;;;;;;13.13;1.20;;;;;;;;;;5087695;28;20406;-83
2023/08/11 02:06:36;;;;;;;14.10;1.50;;;;;;;;;;5089004;28;20428;-83
2023/08/11 02:09:08;;;;;;;13.30;1.33;;;;;;;;;;5082087;28;20801;-84
2023/08/11 02:11:35;;;;;;;13.07;1.10;;;;;;;;;;5080770;28;20422;-85
2023/08/11 02:14:02;;;;;;;13.20;1.25;;;;;;;;;;5086073;28;20436;-84
2023/08/11 02:16:30;;;;;;;13.00;1.13;;;;;;;;;;5073216;28;20420;-84
2023/08/11 02:18:57;;;;;;;13.60;1.20;;;;;;;;;;5085203;28;20775;-84
2023/08/11 02:21:26;;;;;;;13.20;1.20;;;;;;;;;;5083370;28;20463;-84
2023/08/11 02:23:52;;;;;;;13.13;1.30;;;;;;;;;;5082771;28;20446;-84
2023/08/11 02:26:22;;;;;;;13.32;1.30;;;;;;;;;;5087875;28;20485;-83
2023/08/11 02:28:49;;;;;;;13.10;1.20;;;;;;;;;;5073049;28;20468;-84
2023/08/11 02:31:16;;;;;;;13.20;1.38;;;;;;;;;;5085037;28;20423;-84
2023/08/11 02:33:46;;;;;;;13.40;1.10;;;;;;;;;;5073229;28;20443;-84
2023/08/11 02:36:14;;;;;;;15.38;1.30;;;;;;;;;;5074951;28;20617;-84
2023/08/11 02:38:41;;;;;;;13.35;1.20;;;;;;;;;;5086985;28;20415;-84
2023/08/11 02:41:07;;;;;;;13.20;1.15;;;;;;;;;;5084820;28;20831;-83
2023/08/11 02:43:36;;;;;;;13.80;1.30;;;;;;;;;;5091682;28;20483;-84
2023/08/11 02:46:05;;;;;;;13.40;1.30;;;;;;;;;;5090128;28;20425;-84
2023/08/11 02:48:36;;;;;;;13.27;1.30;;;;;;;;;;5073850;28;20408;-85
2023/08/11 02:51:04;;;;;;;13.10;1.20;;;;;;;;;;5067368;28;20431;-84
2023/08/11 02:53:31;;;;;;;12.07;1.00;;;;;;;;;;5082925;28;20694;-83
2023/08/11 02:55:58;;;;;;;12.13;1.10;;;;;;;;;;5073507;28;20449;-84
2023/08/11 02:58:25;;;;;;;12.13;0.93;;;;;;;;;;5064968;28;20438;-84
2023/08/11 03:00:52;;;;;;;12.13;1.00;;;;;;;;;;5074683;28;20973;-84
2023/08/11 03:03:19;;;;;;;12.20;1.10;;;;;;;;;;5081706;28;20465;-83
2023/08/11 03:05:46;;;;;;;12.33;1.30;;;;;;;;;;5084033;28;20448;-84
2023/08/11 03:08:15;;;;;;;12.30;1.30;;;;;;;;;;5087057;28;20564;-84
2023/08/11 03:10:41;;;;;;;12.17;1.00;;;;;;;;;;5082358;28;20490;-84
2023/08/11 03:13:23;;;;;;;12.07;1.10;;;;;;;;;;5065644;28;20444;-84
2023/08/11 03:15:52;;;;;;;12.17;1.10;;;;;;;;;;5083690;28;20458;-84
2023/08/11 03:18:19;;;;;;;12.17;1.27;;;;;;;;;;5080295;28;20426;-85
2023/08/11 03:20:46;;;;;;;12.10;1.00;;;;;;;;;;5078467;28;20438;-84
2023/08/11 03:23:13;;;;;;;12.30;1.17;;;;;;;;;;5078508;28;20549;-84
2023/08/11 03:25:41;;;;;;;12.07;0.97;;;;;;;;;;5064332;28;20435;-84
2023/08/11 03:28:09;;;;;;;12.03;0.90;;;;;;;;;;5086479;28;20437;-84
2023/08/11 03:30:38;;;;;;;12.43;1.30;;;;;;;;;;5088237;28;20486;-84
2023/08/11 03:33:05;;;;;;;12.03;1.17;;;;;;;;;;5085513;28;20437;-84
2023/08/11 03:35:40;;;;;;;12.13;1.17;;;;;;;;;;5091366;28;20434;-85
2023/08/11 03:38:07;;;;;;;12.47;1.53;;;;;;;;;;5073403;28;21005;-84
2023/08/11 03:40:34;;;;;;;12.30;1.20;;;;;;;;;;5084154;28;20438;-84
2023/08/11 03:43:03;;;;;;;12.13;1.10;;;;;;;;;;5074336;28;20607;-84
2023/08/11 03:45:32;;;;;;;12.40;1.20;;;;;;;;;;5100208;28;20490;-84
2023/08/11 03:48:00;;;;;;;12.10;1.00;;;;;;;;;;5087149;28;20455;-84
2023/08/11 03:50:27;;;;;;;12.07;0.90;;;;;;;;;;5088139;28;20821;-84
2023/08/11 03:52:53;;;;;;;12.33;1.40;;;;;;;;;;5074006;28;20573;-84
2023/08/11 03:55:20;;;;;;;12.30;1.20;;;;;;;;;;5088519;28;20836;-84
2023/08/11 03:57:47;;;;;;;13.30;1.20;;;;;;;;;;5082935;28;20455;-84
2023/08/11 04:00:19;;;;;;;13.30;1.10;;;;;;;;;;5089782;28;20410;-84
2023/08/11 04:03:03;;;;;;;13.10;1.30;;;;;;;;;;5084313;28;20932;-84
2023/08/11 04:05:30;;;;;;;14.10;1.98;;;;;;;;;;5081776;28;20509;-84
2023/08/11 04:07:57;;;;;;;13.82;1.50;;;;;;;;;;5076095;28;20437;-84
2023/08/11 04:10:24;;;;;;;11.90;1.00;;;;;;;;;;5085091;28;20295;-84
2023/08/11 04:12:51;;;;;;;12.47;1.50;;;;;;;;;;5087846;28;20958;-84
2023/08/11 04:15:19;;;;;;;12.43;1.20;;;;;;;;;;5077069;28;20530;-84
2023/08/11 04:17:45;;;;;;;12.40;1.30;;;;;;;;;;5084896;28;20435;-84
2023/08/11 04:20:15;;;;;;;12.13;1.00;;;;;;;;;;5082412;28;20435;-84
2023/08/11 04:22:42;;;;;;;13.70;2.70;;;;;;;;;;5082954;28;20992;-83
2023/08/11 04:25:10;;;;;;;11.93;0.90;;;;;;;;;;5081661;28;20436;-84
2023/08/11 04:27:41;;;;;;;12.17;1.17;;;;;;;;;;5080500;28;20448;-84
2023/08/11 04:30:08;;;;;;;12.10;1.10;;;;;;;;;;5081226;28;20531;-84
2023/08/11 04:32:38;;;;;;;13.00;1.63;;;;;;;;;;5071153;28;20486;-84
2023/08/11 04:35:08;;;;;;;12.13;1.10;;;;;;;;;;5072145;28;20441;-85
2023/08/11 04:37:37;;;;;;;11.97;0.93;;;;;;;;;;5072981;28;20928;-84
2023/08/11 04:40:08;;;;;;;12.17;1.00;;;;;;;;;;5090400;28;21005;-84
2023/08/11 04:42:35;;;;;;;13.10;1.90;;;;;;;;;;5073876;28;20478;-83
2023/08/11 04:45:02;;;;;;;11.97;0.90;;;;;;;;;;5083238;28;20487;-83
2023/08/11 04:47:30;;;;;;;12.07;1.00;;;;;;;;;;5072489;28;20563;-83
2023/08/11 04:49:58;;;;;;;12.07;1.00;;;;;;;;;;5082323;28;20812;-84
2023/08/11 04:52:25;;;;;;;12.10;1.20;;;;;;;;;;5082982;28;20462;-84
2023/08/11 04:54:51;;;;;;;11.97;1.00;;;;;;;;;;5081834;28;20557;-84
2023/08/11 04:57:18;;;;;;;12.17;1.20;;;;;;;;;;5085230;28;20430;-84
2023/08/11 04:59:49;;;;;;;12.17;1.13;;;;;;;;;;5082974;28;20441;-84
2023/08/11 05:02:16;;;;;;;12.10;1.10;;;;;;;;;;5089225;28;20447;-84
2023/08/11 05:04:43;;;;;;;11.87;0.90;;;;;;;;;;5085612;28;20502;-84
2023/08/11 05:07:10;;;;;;;12.53;1.40;;;;;;;;;;5079898;28;20443;-83
2023/08/11 05:09:38;;;;;;;12.03;0.90;;;;;;;;;;5066172;28;20469;-84
2023/08/11 05:12:05;;;;;;;11.93;1.00;;;;;;;;;;5071749;28;20451;-83
2023/08/11 05:14:32;;;;;;;12.37;1.53;;;;;;;;;;5085372;28;20480;-82
2023/08/11 05:16:59;;;;;;;11.93;1.10;;;;;;;;;;5089668;28;20949;-83
2023/08/11 05:19:31;;;;;;;12.03;1.00;;;;;;;;;;5084465;28;20781;-83
2023/08/11 05:21:57;;;;;;;12.03;1.00;;;;;;;;;;5083190;28;20930;-83
2023/08/11 05:24:26;;;;;;;12.17;1.20;;;;;;;;;;5081562;28;20434;-83
2023/08/11 05:26:53;;;;;;;12.30;1.10;;;;;;;;;;5079055;28;20436;-82
2023/08/11 05:29:19;;;;;;;11.93;1.00;;;;;;;;;;5079748;28;20442;-82
2023/08/11 05:31:46;;;;;;;12.13;1.10;;;;;;;;;;5086645;28;20441;-82
2023/08/11 05:34:12;;;;;;;12.60;1.10;;;;;;;;;;5069140;28;20554;-83
2023/08/11 05:36:39;;;;;;;12.40;1.37;;;;;;;;;;5068978;28;20447;-82
2023/08/11 05:39:08;;;;;;;;;;;;;;;;;;5081280;28;20362;-82
2023/08/11 05:41:34;;;;;;;;;;;;;;;;;;5065598;28;19920;-82
2023/08/11 05:44:01;;;;;;;;;;;;;;;;;;5082046;28;19928;-83
2023/08/11 05:46:29;;;;;;;;;;;;;;;;;;5082802;28;20129;-83
2023/08/11 05:48:56;;;;;;;;;;;;;;;;;;5067054;28;19924;-82
2023/08/11 05:51:22;;;;;;;;;;;;;;;;;;5083575;28;20357;-83
2023/08/11 05:53:49;;;;;;;;;;;;;;;;;;5079819;28;20336;-82
2023/08/11 05:56:19;;;;;;;;;;;;;;;;;;5089388;28;19920;-82
2023/08/11 05:58:46;;;;;;;;;;;;;;;;;;5086763;28;19932;-83
2023/08/11 06:01:14;;;;;;;12.03;1.03;;;;;;;;;;5065937;28;20381;-83
2023/08/11 06:03:40;;;;;;;;;;;;;;;;;;5085255;28;20282;-82
2023/08/11 06:06:07;;;;;;;;;;;;;;;;;;5081724;28;19927;-82
2023/08/11 06:08:34;;;;;;;;;;;;;;;;;;5083039;28;19938;-82
2023/08/11 06:11:01;;;;;;;;;;;;;;;;;;5084849;28;19955;-83
2023/08/11 06:13:28;;;;;;;;;;;;;;;;;;5073570;28;19921;-82
2023/08/11 06:15:56;;;;;;;;;;;;;;;;;;5101923;28;19926;-81
2023/08/11 06:18:22;;;;;;;;;;;;;;;;;;5084853;28;19932;-81
2023/08/11 06:20:49;;;;;;;;;;;;;;;;;;5084710;28;20320;-82
2023/08/11 06:23:15;;;;;;;;;;;;;;;;;;5072296;28;19928;-82
2023/08/11 06:25:41;;;;;;;;;;;;;;;;;;5084899;28;19920;-82
2023/08/11 06:28:08;;;;;;;;;;;;;;;;;;5091250;28;19943;-83
2023/08/11 06:30:36;;;;;;;13.18;1.20;;;;;;;;;;5082092;28;20467;-83
2023/08/11 06:33:03;;;;;;;13.00;1.00;;;;;;;;;;5066892;28;20449;-82
2023/08/11 06:35:30;;;;;;;13.10;1.00;;;;;;;;;;5070636;28;21048;-82
2023/08/11 06:37:57;;;;;;;13.50;1.20;;;;;;;;;;5067690;28;20408;-81
2023/08/11 06:40:25;;;;;;;13.10;1.00;;;;;;;;;;5079667;28;20407;-81
2023/08/11 06:42:51;;;;;;;;;;;;;;;;;;5081521;28;20063;-82
2023/08/11 06:45:18;;;;;;;12.80;1.10;;;;;;;;;;5069634;28;20462;-82
2023/08/11 06:47:45;;;;;;;;;;;;;;;;;;5085061;28;20635;-82
2023/08/11 06:50:12;;;;;;;;;;;;;;;;;;5090268;28;19981;-81
2023/08/11 06:52:38;;;;;;;;;;;;;;;;;;5081726;28;19924;-81
2023/08/11 06:55:05;;;;;;;;;;;;;;;;;;5080655;28;19924;-81
2023/08/11 06:57:31;;;;;;;;;;;;;;;;;;5088048;28;19920;-81
2023/08/11 06:59:59;;;;;;;;;;;;;;;;;;5089294;28;19927;-80
2023/08/11 07:02:25;;;;;;;;;;;;;;;;;;5087546;28;19924;-81
2023/08/11 07:04:52;;;;;;;;;;;;;;;;;;5090239;28;19935;-80
2023/08/11 07:07:20;;;;;;;13.90;1.00;;;;;;;;;;5080506;28;20399;-81
2023/08/11 07:09:48;;;;;;;13.30;1.20;;;;;;;;;;5080817;28;20896;-80
2023/08/11 07:12:15;;;;;;;13.20;1.10;;;;;;;;;;5090172;28;20401;-81
2023/08/11 07:14:42;;;;;;;13.00;1.20;;;;;;;;;;5083331;28;20423;-81
2023/08/11 07:17:09;;;;;;;12.90;0.90;;;;;;;;;;5086664;28;20513;-81
2023/08/11 07:19:36;;;;;;;12.40;1.30;;;;;;;;;;5086993;28;20560;-82
2023/08/11 07:22:03;;;;;;;13.73;1.17;;;;;;;;;;5084614;28;20508;-82
2023/08/11 07:24:34;;;;;;;12.13;1.10;;;;;;;;;;5087965;28;20427;-83
2023/08/11 07:27:01;;;;;;;12.03;1.07;;;;;;;;;;5083586;28;21029;-82
2023/08/11 07:29:28;;;;;;;12.23;1.20;;;;;;;;;;5085850;28;20864;-82
2023/08/11 07:31:56;;;;;;;12.23;1.30;;;;;;;;;;5086526;28;20447;-82
2023/08/11 07:34:23;;;;;;;12.10;1.20;;;;;;;;;;5083732;28;20463;-82
2023/08/11 07:36:49;;;;;;;12.10;1.10;;;;;;;;;;5086635;28;20409;-82
2023/08/11 07:39:16;;;;;;;12.03;1.00;;;;;;;;;;5086924;28;20454;-82
2023/08/11 07:41:51;;;;;;;12.03;1.00;;;;;;;;;;5084494;28;20475;-83
2023/08/11 07:44:18;;;;;;;12.47;1.30;;;;;;;;;;5066506;28;20418;-82
2023/08/11 07:46:45;;;;;;;12.33;1.47;;;;;;;;;;5087138;28;20804;-82
2023/08/11 07:49:12;;;;;;;12.10;1.10;;;;;;;;;;5079411;28;20474;-83
2023/08/11 07:51:40;;;;;;;12.47;1.40;;;;;;;;;;5092967;28;20491;-82
2023/08/11 07:54:08;;;;;;;12.13;1.10;;;;;;;;;;5092234;28;20957;-81
2023/08/11 07:56:36;;;;;;;;;;;;;;;;;;5068656;28;20365;-81
2023/08/11 07:59:02;;;;;;;;;;;;;;;;;;5091491;28;19918;-81
2023/08/11 08:01:29;;;;;;;;;;;;;;;;;;5087720;28;19931;-82
2023/08/11 08:03:56;;;;;;;;;;;;;;;;;;5087977;28;19988;-84
2023/08/11 08:06:22;;;;;;;;;;;;;;;;;;5088566;28;20433;-83
2023/08/11 08:08:49;;;;;;;;;;;;;;;;;;5083094;28;20365;-82
2023/08/11 08:11:15;;;;;;;;;;;;;;;;;;5089413;28;19927;-82
2023/08/11 08:13:42;;;;;;;;;;;;;;;;;;5086327;28;19924;-83
2023/08/11 08:16:08;;;;;;;;;;;;;;;;;;5073624;28;20349;-80
2023/08/11 08:18:35;;;;;;;;;;;;;;;;;;5091869;28;19927;-81
2023/08/11 08:21:02;;;;;;;;;;;;;;;;;;5088790;28;20019;-81
2023/08/11 08:23:28;;;;;;;;;;;;;;;;;;5083183;28;20011;-82
2023/08/11 08:25:55;;;;;;;;;;;;;;;;;;5088112;28;20258;-81
2023/08/11 08:28:21;;;;;;;;;;;;;;;;;;5083401;28;20022;-81
2023/08/11 08:30:48;;;;;;;;;;;;;;;;;;5075301;28;19920;-82
2023/08/11 08:33:14;;;;;;;;;;;;;;;;;;5073316;28;19952;-81
2023/08/11 08:35:41;;;;;;;;;;;;;;;;;;5092437;28;20580;-81
2023/08/11 08:38:07;;;;;;;;;;;;;;;;;;5085126;28;19924;-80
2023/08/11 08:40:34;;;;;;;;;;;;;;;;;;5089476;28;19962;-80
2023/08/11 08:43:00;;;;;;;;;;;;;;;;;;5085043;28;19942;-80
2023/08/11 08:45:27;;;;;;;;;;;;;;;;;;5085943;28;19974;-80
2023/08/11 08:47:55;;;;;;;;;;;;;;;;;;5087195;28;19920;-79
2023/08/11 08:50:21;;;;;;;;;;;;;;;;;;5087854;28;19919;-81
2023/08/11 08:52:47;;;;;;;;;;;;;;;;;;5092713;28;19920;-81
2023/08/11 08:55:14;;;;;;;;;;;;;;;;;;5088839;28;19920;-81
2023/08/11 08:57:40;;;;;;;;;;;;;;;;;;5084945;28;19931;-81
2023/08/11 09:00:07;;;;;;;;;;;;;;;;;;5084925;28;19954;-81
2023/08/11 09:02:35;;;;;;;;;;;;;;;;;;5082683;28;20346;-79
2023/08/11 09:05:01;;;;;;;;;;;;;;;;;;5083668;28;19931;-81
2023/08/11 09:07:28;;;;;;;;;;;;;;;;;;5073426;28;19927;-81
2023/08/11 09:09:55;;;;;;;;;;;;;;;;;;5090490;28;19958;-80
2023/08/11 09:12:24;;;;;;;;;;;;;;;;;;5090010;28;19992;-80
2023/08/11 09:14:50;;;;;;;;;;;;;;;;;;5087261;28;19973;-80
2023/08/11 09:17:17;;;;;;;;;;;;;;;;;;5082986;28;19928;-81
2023/08/11 09:19:44;;;;;;;;;;;;;;;;;;5091063;28;19932;-81
2023/08/11 09:22:10;;;;;;;;;;;;;;;;;;5072452;28;19925;-80
2023/08/11 09:24:37;;;;;;;;;;;;;;;;;;5075226;28;19946;-81
2023/08/11 09:27:03;;;;;;;;;;;;;;;;;;5082773;28;19924;-79
2023/08/11 09:29:30;;;;;;;;;;;;;;;;;;5074041;28;19969;-79
2023/08/11 09:31:57;;;;;;;;;;;;;;;;;;5084300;28;19967;-80
2023/08/11 09:34:23;;;;;;;;;;;;;;;;;;5083199;28;19981;-80
2023/08/11 09:36:50;;;;;;;;;;;;;;;;;;5081665;28;19924;-80
2023/08/11 09:39:18;;;;;;;12.40;1.30;;;;;;;;;;5088299;28;20206;-80
2023/08/11 09:41:45;;;;;;;12.07;1.23;;;;;;;;;;5077581;28;20427;-80
2023/08/11 09:44:14;;;;;;;12.07;1.03;;;;;;;;;;5086319;28;20478;-80
2023/08/11 09:46:42;;;;;;;12.07;0.97;;;;;;;;;;5080969;28;20446;-79
2023/08/11 09:49:09;;;;;;;12.27;1.17;;;;;;;;;;5082055;28;20455;-80
2023/08/11 09:51:36;;;;;;;12.13;1.00;;;;;;;;;;5084583;28;20437;-79
2023/08/11 09:54:06;;;;;;;12.70;1.03;;;;;;;;;;5068293;28;20510;-80
2023/08/11 09:56:38;;;;;;;12.17;1.10;;;;;;;;;;5067088;28;20806;-81
2023/08/11 09:59:10;;;;;;;12.13;1.17;;;;;;;;;;5083046;28;20467;-81
2023/08/11 10:01:37;;;;;;;12.27;1.20;;;;;;;;;;5087080;28;20494;-80
2023/08/11 10:04:07;;;;;;;12.23;1.10;;;;;;;;;;5080733;28;20496;-81
2023/08/11 10:06:36;;;;;;;12.03;1.10;;;;;;;;;;5085180;28;20473;-80
2023/08/11 10:09:04;;;;;;;12.20;1.10;;;;;;;;;;5084288;28;20489;-79
2023/08/11 10:11:32;;;;;;;12.00;1.00;;;;;;;;;;5086288;28;20439;-80
2023/08/11 10:14:02;;;;;;;12.50;1.10;;;;;;;;;;5081838;28;20496;-80
2023/08/11 10:16:29;;;;;;;12.23;1.10;;;;;;;;;;5071189;28;20430;-80
2023/08/11 10:18:56;;;;;;;11.93;0.83;;;;;;;;;;5081161;28;20439;-80
2023/08/11 10:21:24;;;;;;;12.90;0.90;;;;;;;;;;5082336;28;20430;-80
2023/08/11 10:23:51;;;;;;;12.00;0.90;;;;;;;;;;5070605;28;20463;-80
2023/08/11 10:26:18;;;;;;;11.87;0.80;;;;;;;;;;5084673;28;20972;-81
2023/08/11 10:28:45;;;;;;;11.90;0.93;;;;;;;;;;5082281;28;20529;-79
2023/08/11 10:31:13;;;;;;;11.97;0.93;;;;;;;;;;5085956;28;20491;-79
2023/08/11 10:33:46;;;;;;;11.97;1.10;;;;;;;;;;5070065;28;21030;-80
2023/08/11 10:36:15;;;;;;;11.83;0.90;;;;;;;;;;5078406;28;20448;-80
2023/08/11 10:38:44;;;;;;;12.10;1.27;;;;;;;;;;5090793;28;20548;-80
2023/08/11 10:41:16;;;;;;;12.03;1.00;;;;;;;;;;5068982;28;20464;-80
2023/08/11 10:43:45;;;;;;;12.00;0.97;;;;;;;;;;5088408;28;20437;-80
2023/08/11 10:46:18;;;;;;;11.87;0.93;;;;;;;;;;5085938;28;20463;-80
2023/08/11 10:48:45;;;;;;;12.10;1.10;;;;;;;;;;5090160;28;20957;-80
2023/08/11 10:51:23;;;;;;;12.50;1.20;;;;;;;;;;5077313;28;20434;-80
2023/08/11 10:53:49;;;;;;;11.83;0.97;;;;;;;;;;5086986;28;20455;-80
2023/08/11 10:56:25;;;;;;;11.83;0.90;;;;;;;;;;5089483;28;20481;-80
2023/08/11 10:58:53;;;;;;;11.93;1.10;;;;;;;;;;5085419;28;20506;-79
2023/08/11 11:01:21;;;;;;;11.80;0.97;;;;;;;;;;5072910;28;20435;-79
2023/08/11 11:03:48;;;;;;;12.27;1.23;;;;;;;;;;5086486;28;20422;-79
2023/08/11 11:06:16;;;;;;;12.60;1.10;;;;;;;;;;5086189;28;20469;-79
2023/08/11 11:08:42;;;;;;;12.27;0.93;;;;;;;;;;5090109;28;20450;-81
2023/08/11 11:11:09;;;;;;;12.00;0.97;;;;;;;;;;5085374;28;20459;-81
2023/08/11 11:13:35;;;;;;;12.13;1.00;;;;;;;;;;5088234;28;20451;-79
2023/08/11 11:16:02;;;;;;;11.93;0.90;;;;;;;;;;5086487;28;20454;-79
2023/08/11 11:18:30;;;;;;;11.83;0.90;;;;;;;;;;5082992;28;20462;-80
2023/08/11 11:20:57;;;;;;;11.97;1.00;;;;;;;;;;5082132;28;20453;-78
2023/08/11 11:23:24;;;;;;;11.97;0.93;;;;;;;;;;5087657;28;20519;-80
2023/08/11 11:25:50;;;;;;;11.83;0.87;;;;;;;;;;5085818;28;20464;-80
2023/08/11 11:28:18;;;;;;;12.03;1.00;;;;;;;;;;5082020;28;20443;-80
2023/08/11 11:30:46;;;;;;;11.97;0.90;;;;;;;;;;5084719;28;21075;-80
2023/08/11 11:33:13;;;;;;;11.97;1.17;;;;;;;;;;5083409;28;20497;-80
2023/08/11 11:35:41;;;;;;;11.97;0.90;;;;;;;;;;5085400;28;20430;-80
2023/08/11 11:38:10;;;;;;;12.03;1.20;;;;;;;;;;5069830;28;20466;-79
2023/08/11 11:40:36;;;;;;;12.13;1.00;;;;;;;;;;5088465;28;20435;-80
2023/08/11 11:43:03;;;;;;;12.40;1.07;;;;;;;;;;5084695;28;20789;-80
2023/08/11 11:45:30;;;;;;;11.90;1.00;;;;;;;;;;5064878;28;20569;-81
2023/08/11 11:47:57;;;;;;;12.10;1.13;;;;;;;;;;5083710;28;20435;-80
2023/08/11 11:50:25;;;;;;;11.93;0.93;;;;;;;;;;5084712;28;20437;-79
2023/08/11 11:52:54;;;;;;;12.20;1.00;;;;;;;;;;5087239;28;20830;-80
2023/08/11 11:55:20;;;;;;;12.07;1.10;;;;;;;;;;5080306;28;20438;-79
2023/08/11 11:57:47;;;;;;;13.23;1.10;;;;;;;;;;5069954;28;20461;-80
2023/08/11 12:00:18;;;;;;;11.93;1.10;;;;;;;;;;5069188;28;20859;-80
2023/08/11 12:02:45;;;;;;;11.97;1.00;;;;;;;;;;5085057;28;20442;-81
2023/08/11 12:05:13;;;;;;;12.00;1.23;;;;;;;;;;5086258;28;20834;-81
2023/08/11 12:07:40;;;;;;;11.93;1.10;;;;;;;;;;5074420;28;20474;-80
2023/08/11 12:10:08;;;;;;;12.13;1.10;;;;;;;;;;5080961;28;20520;-80
2023/08/11 12:12:35;;;;;;;12.03;1.00;;;;;;;;;;5082147;28;20775;-81
2023/08/11 12:15:03;;;;;;;12.50;1.17;;;;;;;;;;5088688;28;20438;-81
2023/08/11 12:17:30;;;;;;;12.37;1.10;;;;;;;;;;5082306;28;20439;-80
2023/08/11 12:19:56;;;;;;;11.87;1.00;;;;;;;;;;5083893;28;20519;-81
2023/08/11 12:22:23;;;;;;;12.47;1.67;;;;;;;;;;5083464;28;20546;-81
2023/08/11 12:24:50;;;;;;;12.30;1.43;;;;;;;;;;5085763;28;20798;-81
2023/08/11 12:27:18;;;;;;;11.90;1.00;;;;;;;;;;5085914;28;20520;-81
2023/08/11 12:29:44;;;;;;;12.37;1.00;;;;;;;;;;5082176;28;20435;-80
2023/08/11 12:32:11;;;;;;;11.97;0.93;;;;;;;;;;5068999;28;20438;-81
2023/08/11 12:34:38;;;;;;;12.17;1.00;;;;;;;;;;5087393;28;20439;-82
2023/08/11 12:37:04;;;;;;;12.37;1.23;;;;;;;;;;5085789;28;20430;-82
2023/08/11 12:39:32;;;;;;;12.03;1.00;;;;;;;;;;5068738;28;20525;-82
2023/08/11 12:41:59;;;;;;;12.37;1.20;;;;;;;;;;5086524;28;20802;-82
2023/08/11 12:44:27;;;;;;;12.27;1.00;;;;;;;;;;5087587;28;20896;-81
2023/08/11 12:46:53;;;;;;;12.07;0.90;;;;;;;;;;5087800;28;20466;-81
2023/08/11 12:49:20;;;;;;;12.17;0.90;;;;;;;;;;5074021;28;20469;-81
2023/08/11 12:51:50;;;;;;;12.17;0.90;;;;;;;;;;5082282;28;20439;-80
2023/08/11 12:54:18;;;;;;;12.33;1.13;;;;;;;;;;5083921;28;20460;-81
2023/08/11 12:56:45;;;;;;;12.37;1.23;;;;;;;;;;5065514;28;20449;-80
2023/08/11 12:59:11;;;;;;;12.07;0.93;;;;;;;;;;5089228;28;20841;-81
2023/08/11 13:01:39;;;;;;;12.90;1.33;;;;;;;;;;5083209;28;20834;-82
2023/08/11 13:04:06;;;;;;;12.67;1.10;;;;;;;;;;5086956;28;20437;-81
2023/08/11 13:06:35;;;;;;;12.37;1.30;;;;;;;;;;5086803;28;20996;-79
2023/08/11 13:09:02;;;;;;;12.53;1.60;;;;;;;;;;5083925;28;20457;-79
2023/08/11 13:11:29;;;;;;;11.97;0.73;;;;;;;;;;5085551;28;21102;-79
2023/08/11 13:13:56;;;;;;;;;;;;;;;;;;5085855;28;20290;-79
2023/08/11 13:16:22;;;;;;;12.30;1.23;;;;;;;;;;5082810;28;20195;-80
2023/08/11 13:18:50;;;;;;;12.50;1.43;;;;;;;;;;5070660;28;20445;-80
2023/08/11 13:21:17;;;;;;;12.40;1.00;;;;;;;;;;5087186;28;20442;-81
2023/08/11 13:23:44;;;;;;;12.27;1.20;;;;;;;;;;5087619;28;20445;-80
2023/08/11 13:26:12;;;;;;;12.23;1.00;;;;;;;;;;5083472;28;20462;-79
2023/08/11 13:28:39;;;;;;;12.50;1.00;;;;;;;;;;5086898;28;20911;-78
2023/08/11 13:31:06;;;;;;;13.20;1.00;;;;;;;;;;5078486;28;20406;-79
2023/08/11 13:33:33;;;;;;;12.50;1.10;;;;;;;;;;5085945;28;20430;-80
2023/08/11 13:36:01;;;;;;;12.30;1.20;;;;;;;;;;5073350;28;20521;-80
2023/08/11 13:38:28;;;;;;;12.37;1.10;;;;;;;;;;5083907;28;20454;-79
2023/08/11 13:40:55;;;;;;;12.07;1.10;;;;;;;;;;5080907;28;20529;-79
2023/08/11 13:43:22;;;;;;;12.17;0.90;;;;;;;;;;5084322;28;20740;-79
2023/08/11 13:45:48;;;;;;;12.33;1.13;;;;;;;;;;5083785;28;20462;-79
2023/08/11 13:48:16;;;;;;;13.00;1.10;;;;;;;;;;5082979;28;20416;-79
2023/08/11 13:50:43;;;;;;;12.07;1.07;;;;;;;;;;5082262;28;20569;-79
2023/08/11 13:53:11;;;;;;;12.07;0.90;;;;;;;;;;5079809;28;20242;-79
2023/08/11 13:55:38;;;;;;;12.17;1.13;;;;;;;;;;5086429;28;20928;-81
2023/08/11 13:58:04;;;;;;;12.70;1.20;;;;;;;;;;5085559;28;20433;-80
2023/08/11 14:00:31;;;;;;;12.13;1.00;;;;;;;;;;5082737;28;20486;-79
2023/08/11 14:02:57;;;;;;;12.30;1.10;;;;;;;;;;5080422;28;20778;-79
2023/08/11 14:05:24;;;;;;;12.03;1.00;;;;;;;;;;5082265;28;20820;-80
2023/08/11 14:07:51;;;;;;;12.07;0.80;;;;;;;;;;5084905;28;20476;-79
2023/08/11 14:10:19;;;;;;;12.40;1.10;;;;;;;;;;5094001;28;20441;-79
2023/08/11 14:12:46;;;;;;;12.07;0.83;;;;;;;;;;5089980;28;20450;-79
2023/08/11 14:15:12;;;;;;;12.40;1.00;;;;;;;;;;5095575;28;20418;-79
2023/08/11 14:17:39;;;;;;;12.30;1.30;;;;;;;;;;5089906;28;20464;-81
2023/08/11 14:20:07;;;;;;;12.17;0.90;;;;;;;;;;5101267;28;20479;-79
2023/08/11 14:22:34;;;;;;;12.70;1.37;;;;;;;;;;5079705;28;20426;-80
2023/08/11 14:25:00;;;;;;;12.13;0.90;;;;;;;;;;5096030;28;20434;-80
2023/08/11 14:27:28;;;;;;;13.20;1.10;;;;;;;;;;5099669;28;20910;-79
2023/08/11 14:29:55;;;;;;;12.47;1.23;;;;;;;;;;5094661;28;20430;-81
2023/08/11 14:32:22;;;;;;;12.30;1.00;;;;;;;;;;5096754;28;20468;-79
2023/08/11 14:34:52;;;;;;;12.20;0.90;;;;;;;;;;5090744;28;20440;-79
2023/08/11 14:37:19;;;;;;;12.60;0.90;;;;;;;;;;5089615;28;20577;-79
2023/08/11 14:39:45;;;;;;;12.50;1.20;;;;;;;;;;5094635;28;20431;-79
2023/08/11 14:42:12;;;;;;;12.17;1.00;;;;;;;;;;5087284;28;20445;-79
2023/08/11 14:44:41;;;;;;;12.13;0.90;;;;;;;;;;5087460;28;20906;-79
2023/08/11 14:47:12;;;;;;;12.37;1.03;;;;;;;;;;5085783;28;20845;-79
2023/08/11 14:49:41;;;;;;;12.27;1.10;;;;;;;;;;5085880;28;20446;-81
2023/08/11 14:52:08;;;;;;;12.43;1.00;;;;;;;;;;5076465;28;20506;-79
2023/08/11 14:54:35;;;;;;;12.30;1.10;;;;;;;;;;5088361;28;20430;-78
2023/08/11 14:57:02;;;;;;;12.13;0.90;;;;;;;;;;5090699;28;20449;-79